Time;durP1;ratioP1;P1;durP2;ratioP2;P2;SDS_P1;SDS_P2;PMS_P1;PMS_P2;Temp;Humidity;BMP_temperature;BMP_pressure;BME280_temperature;BME280_humidity;BME280_pressure;Samples;Min_cycle;Max_cycle;Signal;HPM_P1;HPM_P2
2024/02/14 00:01:39;;;;;;;11.75;5.70;;;;;;;7.59;91.22;98912.22;6259261;22;20684;-65
2024/02/14 00:04:07;;;;;;;9.85;5.45;;;;;;;7.82;91.23;98962.22;6233264;22;20102;-63
2024/02/14 00:06:36;;;;;;;7.20;4.10;;;;;;;7.70;90.24;98958.78;6208733;22;20063;-65
2024/02/14 00:09:02;;;;;;;8.43;4.53;;;;;;;7.69;87.06;98967.50;6235186;22;20467;-69
2024/02/14 00:11:28;;;;;;;8.52;4.78;;;;;;;7.51;86.52;98952.44;6232942;22;20090;-66
2024/02/14 00:13:55;;;;;;;8.23;4.20;;;;;;;7.59;86.74;98963.97;6209198;22;20146;-64
2024/02/14 00:16:21;;;;;;;8.48;4.28;;;;;;;7.54;87.46;98953.97;6230854;22;20016;-65
2024/02/14 00:18:49;;;;;;;8.23;4.43;;;;;;;7.59;88.33;98966.56;6234169;22;20020;-68
2024/02/14 00:21:17;;;;;;;8.27;4.45;;;;;;;7.40;88.36;98930.91;6207382;22;20476;-64
2024/02/14 00:23:44;;;;;;;7.70;3.97;;;;;;;7.57;87.23;98958.09;6232641;22;20131;-67
2024/02/14 00:26:13;;;;;;;9.38;3.90;;;;;;;7.59;79.60;98972.53;6210333;22;20412;-64
2024/02/14 00:28:38;;;;;;;6.68;3.17;;;;;;;7.75;72.78;98964.44;6230972;22;20306;-66
2024/02/14 00:31:06;;;;;;;7.25;3.15;;;;;;;7.85;71.33;98964.56;6209575;22;20094;-65
2024/02/14 00:33:34;;;;;;;5.88;2.88;;;;;;;7.98;67.90;98969.63;6206481;22;20296;-68
2024/02/14 00:35:59;;;;;;;6.88;2.92;;;;;;;7.97;69.13;98971.38;6208559;22;20012;-64
2024/02/14 00:38:25;;;;;;;7.47;3.63;;;;;;;7.91;72.72;98965.88;6261745;22;20011;-68
2024/02/14 00:40:50;;;;;;;7.80;4.28;;;;;;;7.78;81.60;98969.38;6207320;22;20539;-64
2024/02/14 00:43:18;;;;;;;6.93;3.85;;;;;;;7.42;83.62;98924.69;6208900;22;20431;-66
2024/02/14 00:45:47;;;;;;;7.07;4.13;;;;;;;7.65;85.98;98979.03;6205315;22;20108;-64
2024/02/14 00:48:12;;;;;;;7.35;4.10;;;;;;;7.72;83.94;98975.06;6234175;22;20007;-66
2024/02/14 00:50:40;;;;;;;7.53;4.15;;;;;;;7.71;85.63;98973.38;6229358;22;20011;-65
2024/02/14 00:53:13;;;;;;;8.48;4.47;;;;;;;7.73;86.16;98986.22;6234620;22;19999;-64
2024/02/14 00:55:41;;;;;;;7.63;4.07;;;;;;;7.68;86.75;98991.72;6233175;22;20007;-65
2024/02/14 00:58:06;;;;;;;6.47;3.88;;;;;;;7.74;87.09;98988.69;6232986;22;20027;-66
2024/02/14 01:00:32;;;;;;;7.65;4.13;;;;;;;7.66;88.70;98984.09;6207572;22;20026;-68
2024/02/14 01:02:58;;;;;;;8.50;4.18;;;;;;;7.38;88.21;98938.78;6229769;22;20004;-63
2024/02/14 01:05:24;;;;;;;7.25;4.10;;;;;;;7.42;88.39;98939.38;6232754;22;20434;-66
2024/02/14 01:07:49;;;;;;;7.53;4.15;;;;;;;7.63;89.49;98989.50;6204592;22;20490;-65
2024/02/14 01:10:15;;;;;;;8.60;4.18;;;;;;;7.56;89.05;98996.09;6231029;22;20502;-70
2024/02/14 01:12:42;;;;;;;7.47;3.88;;;;;;;7.54;89.05;98999.72;6230167;22;20788;-67
2024/02/14 01:15:08;;;;;;;8.60;4.43;;;;;;;7.60;89.90;98999.28;6230166;22;20004;-66
2024/02/14 01:17:36;;;;;;;8.30;4.25;;;;;;;7.59;88.96;99019.13;6207924;22;20022;-65
2024/02/14 01:20:05;;;;;;;7.53;4.10;;;;;;;7.43;89.22;99016.88;6230330;22;20034;-65
2024/02/14 01:22:31;;;;;;;7.60;4.45;;;;;;;7.34;88.75;99015.00;6209756;22;20462;-65
2024/02/14 01:24:59;;;;;;;7.82;3.80;;;;;;;7.45;88.70;99020.19;6263199;22;20012;-70
2024/02/14 01:27:28;;;;;;;8.00;4.30;;;;;;;7.53;89.18;99022.19;6233505;22;20014;-65
2024/02/14 01:29:54;;;;;;;7.75;4.13;;;;;;;7.53;89.97;99022.19;6234038;22;20067;-69
2024/02/14 01:32:20;;;;;;;7.18;3.97;;;;;;;7.59;90.22;99029.47;6204282;22;20007;-65
2024/02/14 01:34:45;;;;;;;7.13;4.03;;;;;;;7.55;89.72;99025.47;6232763;22;20018;-65
2024/02/14 01:37:10;;;;;;;9.98;5.05;;;;;;;7.50;88.40;99028.44;6206279;22;20796;-66
2024/02/14 01:39:36;;;;;;;7.85;4.35;;;;;;;7.54;88.50;99029.03;6232959;22;20023;-63
2024/02/14 01:42:06;;;;;;;8.32;4.35;;;;;;;7.35;89.74;98997.69;6231212;22;20630;-68
2024/02/14 01:44:34;;;;;;;7.97;4.00;;;;;;;7.27;89.28;99037.06;6209365;22;20054;-68
2024/02/14 01:47:00;;;;;;;8.85;4.40;;;;;;;7.35;90.46;99028.75;6206532;22;20018;-70
2024/02/14 01:49:31;;;;;;;8.68;4.32;;;;;;;7.10;90.45;98978.81;6207094;22;20389;-64
2024/02/14 01:52:00;;;;;;;7.07;4.20;;;;;;;7.44;91.99;99022.88;6208044;22;20007;-66
2024/02/14 01:54:26;;;;;;;7.15;4.07;;;;;;;7.09;90.76;98967.66;6205613;22;20018;-65
2024/02/14 01:56:58;;;;;;;7.60;4.13;;;;;;;7.46;90.81;99026.19;6208203;22;20020;-65
2024/02/14 01:59:26;;;;;;;7.90;4.05;;;;;;;6.88;90.75;98984.75;6231137;22;20004;-66
2024/02/14 02:01:54;;;;;;;7.25;3.85;;;;;;;7.04;91.02;99031.00;6207665;22;20010;-64
2024/02/14 02:04:20;;;;;;;7.97;4.35;;;;;;;7.15;89.98;99038.78;6230267;22;20008;-65
2024/02/14 02:06:48;;;;;;;7.28;3.78;;;;;;;7.15;89.38;99040.56;6232427;22;20025;-64
2024/02/14 02:09:14;;;;;;;7.47;3.90;;;;;;;7.05;89.84;99046.41;6235140;22;20008;-67
2024/02/14 02:11:50;;;;;;;6.95;3.65;;;;;;;7.01;90.01;99049.31;6233124;22;20011;-64
2024/02/14 02:14:19;;;;;;;7.55;3.97;;;;;;;6.94;91.08;99043.78;6210793;22;20011;-67
2024/02/14 02:16:45;;;;;;;6.03;3.42;;;;;;;6.91;92.08;99034.47;6206355;22;20084;-65
2024/02/14 02:19:11;;;;;;;8.10;3.78;;;;;;;7.00;92.35;99045.91;6236536;22;20008;-64
2024/02/14 02:21:37;;;;;;;7.38;3.92;;;;;;;7.04;94.51;99038.75;6207563;22;20420;-68
2024/02/14 02:24:05;;;;;;;9.02;3.50;;;;;;;6.92;96.31;99040.47;6209142;22;20086;-64
2024/02/14 02:26:33;;;;;;;7.03;3.33;;;;;;;6.92;96.74;99041.28;6210509;22;20053;-67
2024/02/14 02:28:59;;;;;;;8.82;3.50;;;;;;;6.81;97.44;99020.56;6232780;22;20083;-65
2024/02/14 02:31:25;;;;;;;7.78;3.50;;;;;;;6.90;98.42;99021.66;6210264;22;20011;-70
2024/02/14 02:33:51;;;;;;;7.75;3.50;;;;;;;6.77;98.44;98992.47;6233455;22;20015;-64
2024/02/14 02:36:16;;;;;;;6.93;3.47;;;;;;;6.46;95.91;98967.09;6235830;22;20035;-64
2024/02/14 02:38:44;;;;;;;7.55;3.33;;;;;;;6.70;96.02;99017.94;6207911;22;20020;-65
2024/02/14 02:41:09;;;;;;;8.05;3.40;;;;;;;6.65;92.78;99005.34;6210979;22;20015;-63
2024/02/14 02:43:37;;;;;;;7.50;3.50;;;;;;;6.38;93.59;98971.97;6209679;22;20019;-64
2024/02/14 02:46:03;;;;;;;8.27;3.08;;;;;;;6.69;93.31;99011.91;6207609;22;20007;-64
2024/02/14 02:48:31;;;;;;;5.93;2.97;;;;;;;6.60;93.15;99011.78;6210385;22;20018;-66
2024/02/14 02:50:57;;;;;;;6.18;2.90;;;;;;;6.71;94.51;99020.38;6233932;22;20150;-65
2024/02/14 02:53:23;;;;;;;6.47;2.85;;;;;;;6.52;94.03;98989.88;6235486;22;20476;-66
2024/02/14 02:55:51;;;;;;;6.25;3.00;;;;;;;6.52;93.00;99025.25;6207434;22;20014;-65
2024/02/14 02:58:21;;;;;;;6.43;3.17;;;;;;;6.58;91.74;99011.88;6236391;22;20086;-69
2024/02/14 03:00:53;;;;;;;5.95;2.63;;;;;;;6.62;91.79;99013.28;6231870;22;20016;-66
2024/02/14 03:03:19;;;;;;;8.18;3.00;;;;;;;6.43;94.17;98974.22;6210596;22;20565;-66
2024/02/14 03:05:45;;;;;;;6.45;3.50;;;;;;;6.81;94.21;99032.66;6205228;22;20012;-70
2024/02/14 03:08:16;;;;;;;6.28;3.03;;;;;;;6.50;93.02;98989.16;6207721;22;20012;-65
2024/02/14 03:10:45;;;;;;;6.47;3.00;;;;;;;6.66;94.28;99045.75;6208762;22;20381;-67
2024/02/14 03:13:17;;;;;;;6.20;3.00;;;;;;;6.32;93.96;99001.63;6206602;22;20035;-68
2024/02/14 03:15:43;;;;;;;6.38;2.90;;;;;;;6.62;95.18;99048.66;6208507;22;20007;-67
2024/02/14 03:18:09;;;;;;;7.00;2.92;;;;;;;6.58;95.46;99052.41;6233403;22;20431;-69
2024/02/14 03:20:35;;;;;;;6.35;3.08;;;;;;;6.44;96.58;99045.59;6207066;22;20012;-71
2024/02/14 03:23:03;;;;;;;6.70;3.15;;;;;;;6.42;96.60;99057.81;6209620;22;20011;-66
2024/02/14 03:25:36;;;;;;;7.18;3.40;;;;;;;6.40;95.80;99052.75;6206834;22;20023;-64
2024/02/14 03:28:08;;;;;;;6.07;2.90;;;;;;;6.20;93.99;99048.97;6235319;22;20318;-64
2024/02/14 03:30:40;;;;;;;6.20;2.80;;;;;;;5.99;94.55;99009.13;6233447;22;20004;-68
2024/02/14 03:33:07;;;;;;;7.38;2.97;;;;;;;6.16;95.30;99053.50;6207130;22;20123;-70
2024/02/14 03:35:35;;;;;;;9.25;3.85;;;;;;;6.12;93.98;99048.69;6234180;22;20445;-67
2024/02/14 03:38:02;;;;;;;8.30;3.25;;;;;;;5.85;94.29;99003.13;6208460;22;20516;-66
2024/02/14 03:40:30;;;;;;;7.68;3.17;;;;;;;6.10;95.11;99046.19;6207719;22;20470;-68
2024/02/14 03:42:56;;;;;;;10.63;4.00;;;;;;;6.01;95.58;99048.59;6260497;22;20085;-69
2024/02/14 03:45:21;;;;;;;7.90;3.03;;;;;;;5.99;95.37;99056.44;6207542;22;20015;-66
2024/02/14 03:47:49;;;;;;;9.15;3.25;;;;;;;6.05;96.03;99052.63;6207687;22;20020;-65
2024/02/14 03:50:17;;;;;;;8.00;3.60;;;;;;;6.04;96.79;99050.94;6209113;22;20023;-66
2024/02/14 03:52:42;;;;;;;9.57;3.65;;;;;;;6.06;96.82;99043.91;6207812;22;20008;-69
2024/02/14 03:55:13;;;;;;;10.60;3.70;;;;;;;5.76;97.69;99001.19;6234094;22;20016;-67
2024/02/14 03:57:41;;;;;;;6.38;3.10;;;;;;;6.05;98.00;99060.34;6208112;22;20015;-66
2024/02/14 04:00:08;;;;;;;7.68;3.22;;;;;;;6.01;98.38;99070.06;6209510;22;20011;-67
2024/02/14 04:02:34;;;;;;;8.02;3.13;;;;;;;5.93;98.97;99074.88;6207269;22;20014;-70
2024/02/14 04:05:03;;;;;;;8.25;3.30;;;;;;;5.92;98.71;99084.38;6234019;22;20008;-64
2024/02/14 04:07:29;;;;;;;6.80;3.30;;;;;;;5.93;98.99;99095.53;6233202;22;20022;-66
2024/02/14 04:09:55;;;;;;;8.05;3.30;;;;;;;5.77;100.00;99081.09;6207542;22;20012;-73
2024/02/14 04:12:20;;;;;;;8.00;3.08;;;;;;;5.72;99.25;99079.75;6231966;22;20015;-65
2024/02/14 04:14:46;;;;;;;6.90;3.13;;;;;;;5.81;100.00;99089.44;6232456;22;20018;-67
2024/02/14 04:17:12;;;;;;;9.63;3.33;;;;;;;5.81;99.75;99097.19;6201774;23;20012;-67
2024/02/14 04:19:38;;;;;;;7.82;3.28;;;;;;;5.39;99.99;99088.78;6229174;23;20012;-66
2024/02/14 04:22:03;;;;;;;9.05;3.22;;;;;;;5.41;100.00;99094.66;6205850;22;20082;-64
2024/02/14 04:24:29;;;;;;;8.15;3.22;;;;;;;5.55;100.00;99091.19;6209165;22;20455;-69
2024/02/14 04:26:56;;;;;;;6.57;2.92;;;;;;;5.63;100.00;99082.94;6231847;22;20472;-70
2024/02/14 04:29:21;;;;;;;6.95;3.15;;;;;;;5.65;100.00;99087.06;6208176;22;20008;-68
2024/02/14 04:31:47;;;;;;;8.80;3.22;;;;;;;5.61;100.00;99077.88;6234032;22;20012;-65
2024/02/14 04:34:13;;;;;;;8.48;3.35;;;;;;;5.68;100.00;99097.19;6207579;22;20447;-65
2024/02/14 04:36:40;;;;;;;6.78;2.97;;;;;;;5.54;100.00;99100.66;6234669;22;20089;-68
2024/02/14 04:39:09;;;;;;;6.40;3.10;;;;;;;5.32;100.00;99059.97;6206814;22;20019;-66
2024/02/14 04:41:38;;;;;;;8.45;3.95;;;;;;;5.57;100.00;99110.78;6233572;22;20035;-68
2024/02/14 04:44:09;;;;;;;7.75;3.03;;;;;;;5.45;100.00;99100.44;6231352;22;20039;-64
2024/02/14 04:46:35;;;;;;;6.43;3.47;;;;;;;5.59;100.00;99100.38;6208197;22;20471;-67
2024/02/14 04:49:02;;;;;;;6.70;3.58;;;;;;;5.34;100.00;99099.38;6259453;22;20010;-64
2024/02/14 04:51:31;;;;;;;6.07;2.97;;;;;;;5.44;100.00;99091.91;6209090;22;20421;-67
2024/02/14 04:53:59;;;;;;;6.32;3.45;;;;;;;5.54;100.00;99092.91;6205165;22;20029;-66
2024/02/14 04:56:26;;;;;;;6.30;2.92;;;;;;;5.54;100.00;99095.50;6208163;22;20017;-67
2024/02/14 04:58:55;;;;;;;6.80;3.08;;;;;;;5.48;100.00;99082.19;6208502;22;20134;-70
2024/02/14 05:01:21;;;;;;;9.02;3.80;;;;;;;5.53;100.00;99095.59;6208004;22;20007;-69
2024/02/14 05:03:49;;;;;;;8.32;3.25;;;;;;;5.39;100.00;99071.53;6233927;22;20318;-69
2024/02/14 05:06:15;;;;;;;7.63;3.22;;;;;;;5.21;100.00;99046.97;6206657;22;20100;-72
2024/02/14 05:08:43;;;;;;;6.55;3.10;;;;;;;5.57;100.00;99097.88;6234445;22;20781;-67
2024/02/14 05:11:08;;;;;;;8.27;3.90;;;;;;;5.57;100.00;99094.50;6230874;22;20018;-72
2024/02/14 05:13:34;;;;;;;7.47;3.30;;;;;;;5.40;100.00;99105.88;6261692;22;20012;-66
2024/02/14 05:16:03;;;;;;;7.60;3.45;;;;;;;5.35;100.00;99108.78;6205148;22;20029;-68
2024/02/14 05:18:33;;;;;;;9.03;3.07;;;;;;;5.34;100.00;99106.28;6206862;22;20034;-66
2024/02/14 05:20:59;;;;;;;7.22;3.47;;;;;;;5.46;100.00;99100.34;6208743;22;20985;-68
2024/02/14 05:23:24;;;;;;;6.30;2.75;;;;;;;5.32;100.00;99095.25;6255822;22;20010;-67
2024/02/14 05:25:50;;;;;;;6.88;3.10;;;;;;;5.32;100.00;99100.41;6232095;22;20601;-69
2024/02/14 05:28:18;;;;;;;5.72;2.90;;;;;;;5.03;100.00;99068.78;6232498;22;20086;-69
2024/02/14 05:30:46;;;;;;;6.50;3.10;;;;;;;4.98;100.00;99097.41;6207246;22;20517;-67
2024/02/14 05:33:11;;;;;;;6.65;2.83;;;;;;;5.21;100.00;99106.25;6205482;22;20019;-65
2024/02/14 05:35:39;;;;;;;8.40;3.20;;;;;;;5.21;100.00;99098.53;6206840;22;20323;-67
2024/02/14 05:38:07;;;;;;;6.97;3.13;;;;;;;5.30;100.00;99104.84;6233373;22;20244;-67
2024/02/14 05:40:33;;;;;;;6.63;2.88;;;;;;;5.31;100.00;99091.88;6208522;22;20969;-66
2024/02/14 05:43:00;;;;;;;6.15;2.55;;;;;;;5.40;100.00;99100.72;6210589;22;20043;-65
2024/02/14 05:45:27;;;;;;;7.30;3.05;;;;;;;5.31;100.00;99103.91;6232996;22;20004;-69
2024/02/14 05:47:53;;;;;;;6.85;2.80;;;;;;;5.10;100.00;99054.56;6210019;22;20314;-66
2024/02/14 05:50:19;;;;;;;5.65;2.60;;;;;;;5.08;100.00;99054.66;6233330;22;20038;-64
2024/02/14 05:52:44;;;;;;;6.25;2.45;;;;;;;5.43;100.00;99113.44;6231783;22;20003;-65
2024/02/14 05:55:09;;;;;;;5.85;2.42;;;;;;;5.46;99.81;99109.81;6256880;22;20046;-67
2024/02/14 05:57:37;;;;;;;5.65;2.40;;;;;;;5.41;100.00;99117.06;6232125;22;20008;-68
2024/02/14 06:00:03;;;;;;;6.28;2.45;;;;;;;5.48;100.00;99115.72;6231126;22;20047;-67
2024/02/14 06:02:31;;;;;;;6.25;2.30;;;;;;;5.63;100.00;99134.53;6201327;22;20420;-66
2024/02/14 06:04:58;;;;;;;6.05;2.72;;;;;;;5.51;100.00;99126.69;6205769;22;20615;-68
2024/02/14 06:07:24;;;;;;;5.68;2.47;;;;;;;5.48;100.00;99123.47;6230512;22;20011;-67
2024/02/14 06:09:54;;;;;;;6.63;2.55;;;;;;;5.59;100.00;99123.59;6206916;22;20549;-66
2024/02/14 06:12:19;;;;;;;6.85;2.67;;;;;;;5.60;100.00;99127.81;6204936;22;20661;-67
2024/02/14 06:14:49;;;;;;;7.18;2.60;;;;;;;5.45;100.00;99139.13;6229592;22;20091;-70
2024/02/14 06:17:14;;;;;;;8.27;2.45;;;;;;;5.31;100.00;99129.69;6206390;22;20429;-67
2024/02/14 06:19:44;;;;;;;7.05;2.53;;;;;;;5.46;100.00;99126.16;6206524;22;20090;-68
2024/02/14 06:22:11;;;;;;;6.68;2.47;;;;;;;5.50;100.00;99145.66;6204507;22;20054;-68
2024/02/14 06:24:37;;;;;;;5.43;2.38;;;;;;;5.43;100.00;99159.88;6259434;22;20026;-67
2024/02/14 06:27:02;;;;;;;6.15;2.50;;;;;;;5.39;100.00;99155.84;6230934;22;20086;-67
2024/02/14 06:29:27;;;;;;;6.20;2.65;;;;;;;5.47;100.00;99163.06;6232912;22;20066;-67
2024/02/14 06:31:53;;;;;;;4.75;2.05;;;;;;;5.62;100.00;99163.81;6256754;22;20011;-67
2024/02/14 06:34:19;;;;;;;5.30;2.47;;;;;;;5.64;100.00;99169.72;6255733;22;20082;-68
2024/02/14 06:36:49;;;;;;;6.10;2.65;;;;;;;5.52;100.00;99155.88;6205613;22;20731;-70
2024/02/14 06:39:14;;;;;;;6.78;2.97;;;;;;;5.34;100.00;99119.19;6204078;22;20024;-67
2024/02/14 06:41:46;;;;;;;5.13;2.38;;;;;;;5.59;100.00;99177.75;6204825;22;20027;-69
2024/02/14 06:44:12;;;;;;;5.18;2.30;;;;;;;5.57;100.00;99184.78;6228792;22;20016;-67
2024/02/14 06:46:37;;;;;;;7.20;2.70;;;;;;;5.61;100.00;99196.53;6230990;22;20575;-67
2024/02/14 06:49:03;;;;;;;7.03;2.75;;;;;;;5.59;100.00;99204.38;6202347;22;20015;-69
2024/02/14 06:51:30;;;;;;;6.00;2.50;;;;;;;5.46;100.00;99205.25;6230046;22;20011;-64
2024/02/14 06:53:58;;;;;;;6.90;2.50;;;;;;;4.96;100.00;99163.69;6204152;22;20429;-66
2024/02/14 06:56:23;;;;;;;6.30;2.22;;;;;;;5.36;100.00;99208.41;6203541;22;20122;-65
2024/02/14 06:58:53;;;;;;;6.20;2.10;;;;;;;5.46;100.00;99211.25;6232315;22;20102;-69
2024/02/14 07:01:21;;;;;;;;;;;;;;;5.43;100.00;99201.13;6207722;22;20136;-66
2024/02/14 07:03:50;;;;;;;5.47;2.13;;;;;;;5.29;99.20;99176.19;6232589;22;19938;-68
2024/02/14 07:06:18;;;;;;;4.90;2.33;;;;;;;5.50;100.00;99189.50;6206181;22;20015;-66
2024/02/14 07:08:43;;;;;;;5.70;2.35;;;;;;;5.53;99.20;99206.53;6206918;22;20667;-66
2024/02/14 07:11:11;;;;;;;6.43;2.35;;;;;;;5.49;97.74;99216.19;6228437;22;20008;-69
2024/02/14 07:13:39;;;;;;;4.60;2.00;;;;;;;5.42;96.84;99202.06;6205742;22;20014;-65
2024/02/14 07:16:07;;;;;;;5.00;2.22;;;;;;;5.53;96.79;99207.38;6230238;22;20381;-65
2024/02/14 07:18:34;;;;;;;4.50;2.03;;;;;;;5.69;97.83;99219.28;6230988;22;20730;-65
2024/02/14 07:21:02;;;;;;;5.85;2.13;;;;;;;5.40;98.97;99191.00;6204993;22;20447;-67
2024/02/14 07:23:29;;;;;;;6.88;3.13;;;;;;;5.53;98.62;99219.41;6203505;22;20035;-67
2024/02/14 07:25:57;;;;;;;7.07;2.28;;;;;;;5.48;98.32;99229.22;6230352;22;20423;-66
2024/02/14 07:28:23;;;;;;;5.68;2.22;;;;;;;5.31;98.97;99189.00;6205301;22;20039;-66
2024/02/14 07:30:50;;;;;;;5.82;2.35;;;;;;;5.49;98.26;99231.69;6256895;22;20114;-64
2024/02/14 07:33:18;;;;;;;5.90;2.25;;;;;;;5.50;97.48;99232.53;6231058;22;20495;-68
2024/02/14 07:35:44;;;;;;;8.35;2.20;;;;;;;5.37;98.94;99233.28;6258882;22;20062;-67
2024/02/14 07:38:09;;;;;;;7.10;2.17;;;;;;;5.11;98.50;99175.63;6230123;22;20021;-66
2024/02/14 07:40:37;;;;;;;4.93;2.13;;;;;;;5.50;99.33;99237.69;6207068;22;20340;-66
2024/02/14 07:43:02;;;;;;;7.20;2.35;;;;;;;5.36;99.47;99229.03;6258036;22;20038;-66
2024/02/14 07:45:28;;;;;;;6.65;2.50;;;;;;;5.45;99.38;99230.22;6257362;22;20773;-67
2024/02/14 07:47:54;;;;;;;6.78;2.30;;;;;;;5.61;99.09;99229.28;6230631;22;20413;-64
2024/02/14 07:50:19;;;;;;;5.50;2.38;;;;;;;5.60;98.55;99236.16;6206604;22;20019;-68
2024/02/14 07:52:45;;;;;;;6.78;2.42;;;;;;;5.55;97.27;99230.50;6204656;22;20012;-67
2024/02/14 07:55:16;;;;;;;7.55;2.40;;;;;;;5.70;97.57;99236.41;6206796;22;20030;-68
2024/02/14 07:57:44;;;;;;;5.32;2.00;;;;;;;5.65;97.38;99246.19;6225869;22;20101;-66
2024/02/14 08:00:10;;;;;;;4.72;2.03;;;;;;;5.80;97.09;99249.53;6232393;22;20091;-67
2024/02/14 08:02:37;;;;;;;6.00;2.30;;;;;;;5.84;95.86;99238.94;6204791;22;20095;-66
2024/02/14 08:05:04;;;;;;;5.22;2.20;;;;;;;5.78;95.55;99227.22;6206449;22;20326;-69
2024/02/14 08:07:32;;;;;;;9.52;2.50;;;;;;;5.79;96.33;99248.72;6203454;22;20023;-65
2024/02/14 08:09:58;;;;;;;6.03;2.40;;;;;;;5.80;95.81;99255.53;6232582;22;20012;-65
2024/02/14 08:12:28;;;;;;;5.75;2.10;;;;;;;5.72;94.67;99250.88;6231424;22;20015;-66
2024/02/14 08:14:56;;;;;;;5.97;2.20;;;;;;;5.67;94.63;99255.50;6231023;22;20034;-67
2024/02/14 08:17:21;;;;;;;4.97;2.30;;;;;;;5.62;94.86;99248.97;6206734;22;20011;-64
2024/02/14 08:19:48;;;;;;;7.85;2.50;;;;;;;5.33;95.66;99205.19;6234154;22;20038;-66
2024/02/14 08:22:15;;;;;;;5.80;2.22;;;;;;;5.61;93.72;99261.03;6230094;22;20043;-66
2024/02/14 08:24:41;;;;;;;4.93;2.25;;;;;;;5.66;93.93;99253.84;6209386;22;20007;-69
2024/02/14 08:27:09;;;;;;;7.65;2.28;;;;;;;5.75;92.96;99247.28;6204938;22;20114;-69
2024/02/14 08:29:34;;;;;;;5.28;2.30;;;;;;;5.81;92.29;99249.47;6207754;22;20675;-66
2024/02/14 08:32:03;;;;;;;5.40;2.55;;;;;;;5.89;91.15;99243.78;6225102;22;20004;-66
2024/02/14 08:34:29;;;;;;;5.93;2.10;;;;;;;5.91;90.70;99235.03;6207016;22;20019;-64
2024/02/14 08:36:54;;;;;;;5.93;2.40;;;;;;;5.93;90.94;99235.75;6233109;22;20007;-66
2024/02/14 08:39:19;;;;;;;5.78;2.47;;;;;;;5.81;91.32;99199.59;6203180;22;20070;-64
2024/02/14 08:41:46;;;;;;;7.93;2.47;;;;;;;6.10;92.41;99236.44;6232852;22;20014;-68
2024/02/14 08:44:12;;;;;;;15.27;6.93;;;;;;;5.89;92.43;99223.97;6206999;22;20012;-68
2024/02/14 08:46:39;;;;;;;23.08;10.45;;;;;;;5.93;92.64;99230.59;6234763;22;20059;-64
2024/02/14 08:49:08;;;;;;;9.18;4.32;;;;;;;5.94;94.02;99234.81;6201970;22;20012;-66
2024/02/14 08:51:36;;;;;;;10.73;4.28;;;;;;;5.98;95.31;99232.91;6229504;22;20000;-69
2024/02/14 08:54:06;;;;;;;7.47;3.10;;;;;;;6.16;96.50;99233.44;6198271;22;20142;-71
2024/02/14 08:56:34;;;;;;;7.05;2.80;;;;;;;6.14;95.83;99237.88;6197742;22;20042;-67
2024/02/14 08:59:06;;;;;;;7.53;3.25;;;;;;;6.07;95.77;99255.53;6227952;22;20018;-69
2024/02/14 09:01:32;;;;;;;9.43;4.07;;;;;;;5.96;97.76;99217.50;6230632;22;20014;-67
2024/02/14 09:03:58;;;;;;;7.75;3.80;;;;;;;6.20;98.19;99240.06;6228322;22;20003;-67
2024/02/14 09:06:24;;;;;;;7.18;2.90;;;;;;;6.18;98.09;99223.84;6202350;22;20042;-68
2024/02/14 09:08:53;;;;;;;7.97;3.30;;;;;;;6.27;97.87;99241.31;6232871;22;20685;-65
2024/02/14 09:11:19;;;;;;;6.65;3.10;;;;;;;6.21;95.73;99238.31;6203027;22;20016;-69
2024/02/14 09:13:53;;;;;;;6.05;2.80;;;;;;;6.25;96.00;99239.75;6227861;22;20091;-64
2024/02/14 09:16:22;;;;;;;6.20;2.97;;;;;;;6.23;96.00;99244.22;6204425;22;20018;-68
2024/02/14 09:18:47;;;;;;;8.32;3.17;;;;;;;6.16;95.89;99236.03;6228472;22;20018;-67
2024/02/14 09:21:16;;;;;;;6.55;3.08;;;;;;;5.83;96.13;99249.38;6229672;22;20015;-68
2024/02/14 09:23:41;;;;;;;10.23;4.97;;;;;;;5.63;97.05;99238.56;6207359;22;20020;-67
2024/02/14 09:26:10;;;;;;;6.93;3.53;;;;;;;5.61;97.38;99219.78;6232172;22;20163;-71
2024/02/14 09:28:36;;;;;;;8.13;4.37;;;;;;;5.99;97.59;99249.22;6205423;22;20064;-66
2024/02/14 09:31:04;;;;;;;8.32;3.80;;;;;;;5.91;98.71;99240.19;6207214;22;20102;-66
2024/02/14 09:33:32;;;;;;;6.50;3.10;;;;;;;6.01;98.25;99243.03;6206986;22;20042;-69
2024/02/14 09:35:59;;;;;;;6.90;3.00;;;;;;;5.72;95.60;99190.69;6229314;22;20054;-67
2024/02/14 09:38:25;;;;;;;8.55;3.83;;;;;;;5.85;97.79;99253.47;6232704;22;20014;-67
2024/02/14 09:41:00;;;;;;;7.38;3.28;;;;;;;5.83;98.77;99239.84;6229217;22;20102;-65
2024/02/14 09:43:40;;;;;;;7.82;3.30;;;;;;;5.93;95.33;99230.59;6227588;22;20415;-68
2024/02/14 09:46:07;;;;;;;8.88;3.30;;;;;;;6.06;97.46;99224.63;6200503;22;20483;-68
2024/02/14 09:48:32;;;;;;;6.18;2.88;;;;;;;6.15;98.51;99221.44;6205814;22;20122;-67
2024/02/14 09:50:59;;;;;;;7.60;2.90;;;;;;;6.18;97.35;99220.44;6228859;22;20390;-66
2024/02/14 09:53:24;;;;;;;8.98;3.03;;;;;;;5.77;95.68;99181.72;6231822;22;20008;-68
2024/02/14 09:55:50;;;;;;;7.03;2.90;;;;;;;6.13;95.34;99218.16;6205465;22;20451;-67
2024/02/14 09:58:17;;;;;;;10.45;5.43;;;;;;;6.15;96.57;99224.03;6230930;22;20003;-64
2024/02/14 10:00:42;;;;;;;18.20;9.52;;;;;;;6.06;90.88;99229.81;6231654;22;20026;-66
2024/02/14 10:03:10;;;;;;;14.55;8.52;;;;;;;6.09;88.63;99220.09;6231263;22;21136;-64
2024/02/14 10:05:38;;;;;;;17.58;10.02;;;;;;;6.16;87.57;99223.13;6207779;22;20014;-64
2024/02/14 10:08:04;;;;;;;15.35;8.00;;;;;;;6.23;86.54;99219.19;6207270;22;20015;-65
2024/02/14 10:10:34;;;;;;;13.30;7.55;;;;;;;6.46;84.64;99233.16;6206195;22;20042;-66
2024/02/14 10:13:02;;;;;;;10.77;5.93;;;;;;;6.52;84.19;99221.59;6204497;22;20008;-66
2024/02/14 10:15:27;;;;;;;6.35;3.03;;;;;;;6.64;79.20;99225.09;6206325;22;20016;-66
2024/02/14 10:17:53;;;;;;;6.40;2.05;;;;;;;6.71;74.90;99237.47;6231150;22;20452;-67
2024/02/14 10:20:21;;;;;;;4.00;1.55;;;;;;;6.83;70.11;99224.66;6222801;22;20641;-67
2024/02/14 10:22:46;;;;;;;5.55;1.67;;;;;;;7.00;70.72;99226.91;6229810;22;20007;-67
2024/02/14 10:25:14;;;;;;;4.55;1.63;;;;;;;6.84;67.91;99190.13;6200983;22;20807;-68
2024/02/14 10:27:40;;;;;;;4.88;1.65;;;;;;;7.21;69.58;99239.25;6207211;22;20008;-66
2024/02/14 10:30:11;;;;;;;4.80;1.80;;;;;;;7.27;68.08;99231.06;6258601;22;20333;-66
2024/02/14 10:32:37;;;;;;;4.50;1.55;;;;;;;7.43;67.24;99234.22;6231609;22;20054;-66
2024/02/14 10:35:13;;;;;;;5.78;1.90;;;;;;;7.65;68.27;99217.16;6207139;22;20012;-66
2024/02/14 10:37:42;;;;;;;5.13;1.58;;;;;;;7.80;67.32;99225.56;6233984;22;20015;-64
2024/02/14 10:40:08;;;;;;;4.78;1.48;;;;;;;7.95;65.28;99228.81;6235039;22;20032;-68
2024/02/14 10:42:37;;;;;;;4.55;1.80;;;;;;;7.87;68.57;99214.66;6207019;22;20501;-69
2024/02/14 10:45:03;;;;;;;4.95;2.13;;;;;;;7.89;69.92;99223.13;6231681;22;20015;-69
2024/02/14 10:47:34;;;;;;;4.32;1.50;;;;;;;8.01;68.06;99220.56;6257433;22;20012;-66
2024/02/14 10:50:07;;;;;;;5.50;1.60;;;;;;;8.07;68.62;99223.53;6206540;22;20011;-63
2024/02/14 10:52:35;;;;;;;5.80;2.00;;;;;;;7.81;67.63;99165.91;6208025;22;20035;-69
2024/02/14 10:55:04;;;;;;;5.93;1.60;;;;;;;8.26;62.44;99217.81;6205949;22;20014;-66
2024/02/14 10:57:34;;;;;;;4.50;1.70;;;;;;;8.28;59.59;99220.28;6232601;22;20884;-67
2024/02/14 11:00:03;;;;;;;4.85;1.48;;;;;;;8.50;57.00;99218.69;6209183;22;20027;-68
2024/02/14 11:02:30;;;;;;;3.65;1.30;;;;;;;8.69;58.90;99212.91;6206684;22;20442;-68
2024/02/14 11:04:56;;;;;;;4.15;1.38;;;;;;;8.74;58.85;99211.63;6209195;22;20010;-65
2024/02/14 11:07:28;;;;;;;4.13;1.27;;;;;;;8.90;59.35;99210.44;6206342;22;20020;-65
2024/02/14 11:10:07;;;;;;;5.78;1.50;;;;;;;9.05;57.52;99217.03;6232673;22;20018;-64
2024/02/14 11:12:38;;;;;;;3.65;1.23;;;;;;;9.11;58.73;99213.97;6209335;22;20090;-65
2024/02/14 11:15:21;;;;;;;4.68;1.52;;;;;;;9.14;58.81;99207.69;6234921;22;20205;-66
2024/02/14 11:17:52;;;;;;;3.60;1.30;;;;;;;9.12;59.03;99202.63;6207291;22;20015;-69
2024/02/14 11:20:21;;;;;;;4.15;1.60;;;;;;;9.12;58.62;99196.63;6207474;22;20011;-66
2024/02/14 11:23:04;;;;;;;4.63;1.40;;;;;;;9.22;58.28;99194.97;6207795;22;20076;-66
2024/02/14 11:25:32;;;;;;;4.75;1.30;;;;;;;9.30;57.15;99191.75;6234734;22;20073;-66
2024/02/14 11:28:02;;;;;;;4.13;1.40;;;;;;;9.17;56.22;99158.16;6206146;22;20092;-66
2024/02/14 11:30:34;;;;;;;4.20;1.40;;;;;;;9.45;55.67;99185.31;6205558;22;20007;-68
2024/02/14 11:33:23;;;;;;;6.22;2.40;;;;;;;9.58;58.21;99190.34;6228388;22;20008;-66
2024/02/14 11:35:53;;;;;;;6.65;2.13;;;;;;;9.77;54.81;99167.13;6208906;22;20323;-64
2024/02/14 11:38:19;;;;;;;;;;;;;;;9.95;55.20;99172.59;6210160;22;20012;-66
2024/02/14 11:40:45;;;;;;;3.30;1.23;;;;;;;9.98;54.30;99166.31;6206041;22;19915;-66